createdAt,value
2023-03-17T00:00:34.056Z,-3.91
2023-03-17T00:01:21.168Z,-3.88
2023-03-17T00:02:09.086Z,-3.82
2023-03-17T00:02:59.853Z,-3.96
2023-03-17T00:03:48.027Z,-3.88
2023-03-17T00:04:35.041Z,-4.12
2023-03-17T00:05:24.965Z,-4.17
2023-03-17T00:06:32.475Z,-4.19
2023-03-17T00:07:19.473Z,-4.08
2023-03-17T00:08:19.709Z,-4.27
2023-03-17T00:09:11.903Z,-4.13
2023-03-17T00:09:58.833Z,-4.26
2023-03-17T00:10:45.744Z,-4.11
2023-03-17T00:11:32.704Z,-4.06
2023-03-17T00:12:20.027Z,-3.95
2023-03-17T00:13:07.238Z,-3.90
2023-03-17T00:13:54.514Z,-3.96
2023-03-17T00:14:42.627Z,-3.94
2023-03-17T00:15:29.826Z,-4.01
2023-03-17T00:16:18.263Z,-4.03
2023-03-17T00:17:05.266Z,-3.99
2023-03-17T00:17:52.166Z,-4.08
2023-03-17T00:18:39.087Z,-4.11
2023-03-17T00:19:34.117Z,-4.15
2023-03-17T00:20:28.029Z,-4.04
2023-03-17T00:21:17.178Z,-4.00
2023-03-17T00:22:06.777Z,-3.95
2023-03-17T00:23:00.315Z,-4.18
2023-03-17T00:23:51.866Z,-4.34
2023-03-17T00:24:38.886Z,-4.32
2023-03-17T00:25:30.105Z,-4.25
2023-03-17T00:26:17.037Z,-4.25
2023-03-17T00:27:12.793Z,-4.19
2023-03-17T00:28:00.912Z,-4.20
2023-03-17T00:28:48.694Z,-4.20
2023-03-17T00:29:35.567Z,-4.13
2023-03-17T00:30:23.194Z,-4.02
2023-03-17T00:31:14.758Z,-4.13
2023-03-17T00:32:01.705Z,-4.23
2023-03-17T00:32:54.596Z,-4.26
2023-03-17T00:33:41.918Z,-4.17
2023-03-17T00:34:28.791Z,-4.32
2023-03-17T00:35:18.688Z,-4.44
2023-03-17T00:36:06.881Z,-4.40
2023-03-17T00:36:53.809Z,-4.48
2023-03-17T00:37:41.816Z,-4.47
2023-03-17T00:38:28.806Z,-4.38
2023-03-17T00:40:02.982Z,-4.31
2023-03-17T00:40:50.929Z,-4.32
2023-03-17T00:41:37.895Z,-4.36
2023-03-17T00:42:24.784Z,-4.43
2023-03-17T00:43:12.913Z,-4.51
2023-03-17T00:43:59.787Z,-4.43
2023-03-17T00:44:47.533Z,-4.41
2023-03-17T00:45:34.614Z,-4.54
2023-03-17T00:46:28.193Z,-4.51
2023-03-17T00:47:15.145Z,-4.55
2023-03-17T00:48:03.454Z,-4.62
2023-03-17T00:48:50.503Z,-4.75
2023-03-17T00:49:37.550Z,-4.67
2023-03-17T00:50:26.624Z,-4.70
2023-03-17T00:51:13.601Z,-4.71
2023-03-17T00:52:00.563Z,-4.59
2023-03-17T00:52:47.637Z,-4.69
2023-03-17T00:53:34.590Z,-4.65
2023-03-17T00:54:21.858Z,-4.68
2023-03-17T00:55:10.102Z,-4.66
2023-03-17T00:55:57.031Z,-4.51
2023-03-17T00:56:44.623Z,-4.58
2023-03-17T00:57:31.661Z,-4.56
2023-03-17T00:58:25.631Z,-4.58
2023-03-17T00:59:21.823Z,-4.66
2023-03-17T01:00:30.080Z,-4.70
2023-03-17T01:01:18.651Z,-4.60
2023-03-17T01:02:05.751Z,-4.59
2023-03-17T01:02:54.878Z,-4.62
2023-03-17T01:03:41.818Z,-4.72
2023-03-17T01:04:28.988Z,-4.58
2023-03-17T01:05:16.620Z,-4.74
2023-03-17T01:06:05.387Z,-4.80
2023-03-17T01:06:53.187Z,-4.81
2023-03-17T01:07:40.908Z,-4.67
2023-03-17T01:08:28.973Z,-4.69
2023-03-17T01:09:17.175Z,-4.72
2023-03-17T01:10:04.884Z,-4.75
2023-03-17T01:10:52.645Z,-4.68
2023-03-17T01:11:39.661Z,-4.61
2023-03-17T01:12:27.913Z,-4.73
2023-03-17T01:13:15.704Z,-4.70
2023-03-17T01:14:03.639Z,-4.68
2023-03-17T01:14:50.556Z,-4.60
2023-03-17T01:15:37.890Z,-4.72
2023-03-17T01:16:24.896Z,-4.86
2023-03-17T01:17:18.695Z,-4.75
2023-03-17T01:18:05.714Z,-4.79
2023-03-17T01:18:53.168Z,-4.82
2023-03-17T01:19:40.131Z,-4.83
2023-03-17T01:20:33.081Z,-4.82
2023-03-17T01:21:20.730Z,-4.85
2023-03-17T01:22:09.169Z,-4.87
2023-03-17T01:22:56.189Z,-4.92
2023-03-17T01:23:43.888Z,-4.95
2023-03-17T01:24:31.121Z,-4.90
2023-03-17T01:25:18.641Z,-4.91
2023-03-17T01:26:06.969Z,-4.88
2023-03-17T01:26:54.589Z,-4.97
2023-03-17T01:27:42.490Z,-4.94
2023-03-17T01:28:29.749Z,-4.92
2023-03-17T01:29:16.731Z,-4.90
2023-03-17T01:30:06.282Z,-5.00
2023-03-17T01:30:53.171Z,-4.96
2023-03-17T01:31:40.148Z,-4.94
2023-03-17T01:32:27.282Z,-4.94
2023-03-17T01:33:14.836Z,-4.94
2023-03-17T01:34:02.834Z,-4.85
2023-03-17T01:34:49.727Z,-4.89
2023-03-17T01:35:38.596Z,-4.88
2023-03-17T01:36:25.703Z,-4.95
2023-03-17T01:37:13.681Z,-5.02
2023-03-17T01:38:01.649Z,-5.08
2023-03-17T01:38:49.788Z,-5.09
2023-03-17T01:39:36.692Z,-4.94
2023-03-17T01:40:28.126Z,-5.07
2023-03-17T01:41:15.201Z,-5.08
2023-03-17T01:42:02.193Z,-4.97
2023-03-17T01:43:19.182Z,-5.02
2023-03-17T01:44:07.445Z,-4.86
2023-03-17T01:45:05.889Z,-4.84
2023-03-17T01:46:23.066Z,-4.89
2023-03-17T01:47:10.329Z,-4.89
2023-03-17T01:47:57.621Z,-4.93
2023-03-17T01:48:53.230Z,-4.97
2023-03-17T01:49:40.182Z,-5.02
2023-03-17T01:50:27.334Z,-4.89
2023-03-17T01:51:20.220Z,-4.99
2023-03-17T01:52:10.554Z,-4.96
2023-03-17T01:52:57.911Z,-4.85
2023-03-17T01:53:47.642Z,-4.85
2023-03-17T01:54:40.058Z,-4.92
2023-03-17T01:55:27.211Z,-4.95
2023-03-17T01:56:15.569Z,-5.01
2023-03-17T01:57:16.332Z,-5.04
2023-03-17T01:58:03.110Z,-5.04
2023-03-17T01:58:52.732Z,-5.01
2023-03-17T01:59:53.744Z,-5.08
2023-03-17T02:00:40.762Z,-5.05
2023-03-17T02:01:32.342Z,-4.99
2023-03-17T02:02:26.694Z,-4.96
2023-03-17T02:03:13.671Z,-4.91
2023-03-17T02:04:01.256Z,-4.93
2023-03-17T02:04:49.585Z,-4.79
2023-03-17T02:05:37.103Z,-4.88
2023-03-17T02:06:24.559Z,-4.92
2023-03-17T02:07:12.799Z,-4.78
2023-03-17T02:08:00.390Z,-4.75
2023-03-17T02:08:47.864Z,-4.86
2023-03-17T02:09:35.053Z,-4.87
2023-03-17T02:10:25.032Z,-4.93
2023-03-17T02:11:12.211Z,-4.89
2023-03-17T02:12:01.083Z,-4.86
2023-03-17T02:12:52.431Z,-4.78
2023-03-17T02:13:39.491Z,-4.84
2023-03-17T02:14:26.972Z,-4.98
2023-03-17T02:15:13.940Z,-4.94
2023-03-17T02:16:01.750Z,-4.95
2023-03-17T02:16:49.631Z,-5.01
2023-03-17T02:17:37.363Z,-4.99
2023-03-17T02:18:24.590Z,-4.93
2023-03-17T02:19:11.712Z,-4.84
2023-03-17T02:20:13.815Z,-4.93
2023-03-17T02:21:35.040Z,-4.87
2023-03-17T02:22:21.823Z,-4.97
2023-03-17T02:23:08.710Z,-5.00
2023-03-17T02:23:56.955Z,-4.97
2023-03-17T02:24:48.513Z,-4.80
2023-03-17T02:25:36.712Z,-4.85
2023-03-17T02:26:24.942Z,-4.84
2023-03-17T02:27:18.806Z,-4.88
2023-03-17T02:28:10.065Z,-4.85
2023-03-17T02:28:57.140Z,-4.77
2023-03-17T02:29:46.533Z,-4.69
2023-03-17T02:30:33.566Z,-4.66
2023-03-17T02:31:21.350Z,-4.83
2023-03-17T02:32:10.163Z,-4.81
2023-03-17T02:32:57.203Z,-4.87
2023-03-17T02:33:44.163Z,-4.92
2023-03-17T02:34:32.009Z,-4.90
2023-03-17T02:35:20.793Z,-4.93
2023-03-17T02:36:09.733Z,-4.86
2023-03-17T02:36:57.373Z,-4.94
2023-03-17T02:37:44.303Z,-4.88
2023-03-17T02:38:32.024Z,-4.87
2023-03-17T02:39:19.082Z,-4.83
2023-03-17T02:40:07.738Z,-4.94
2023-03-17T02:40:54.828Z,-4.95
2023-03-17T02:41:42.023Z,-4.95
2023-03-17T02:42:29.293Z,-4.91
2023-03-17T02:43:16.910Z,-4.93
2023-03-17T02:44:03.956Z,-4.86
2023-03-17T02:44:50.918Z,-4.85
2023-03-17T02:45:37.816Z,-4.88
2023-03-17T02:46:24.855Z,-4.70
2023-03-17T02:47:12.456Z,-4.69
2023-03-17T02:47:59.876Z,-4.77
2023-03-17T02:48:46.874Z,-4.75
2023-03-17T02:49:34.449Z,-4.84
2023-03-17T02:50:24.401Z,-4.81
2023-03-17T02:51:11.290Z,-4.75
2023-03-17T02:51:58.294Z,-4.74
2023-03-17T02:52:45.257Z,-4.74
2023-03-17T02:53:32.456Z,-4.65
2023-03-17T02:54:19.447Z,-4.56
2023-03-17T02:55:06.833Z,-4.49
2023-03-17T02:55:53.777Z,-4.56
2023-03-17T02:56:41.105Z,-4.58
2023-03-17T02:57:28.027Z,-4.66
2023-03-17T02:58:14.929Z,-4.56
2023-03-17T02:59:01.897Z,-4.49
2023-03-17T02:59:48.913Z,-4.37
2023-03-17T03:00:36.257Z,-4.42
2023-03-17T03:01:23.370Z,-4.52
2023-03-17T03:02:10.345Z,-4.58
2023-03-17T03:02:57.488Z,-4.57
2023-03-17T03:03:44.752Z,-4.64
2023-03-17T03:04:31.748Z,-4.68
2023-03-17T03:05:20.065Z,-4.68
2023-03-17T03:06:07.335Z,-4.70
2023-03-17T03:06:54.603Z,-4.55
2023-03-17T03:07:41.694Z,-4.44
2023-03-17T03:08:28.709Z,-4.53
2023-03-17T03:09:17.957Z,-4.48
2023-03-17T03:10:06.027Z,-4.55
2023-03-17T03:10:53.367Z,-4.51
2023-03-17T03:11:40.942Z,-4.59
2023-03-17T03:12:27.865Z,-4.58
2023-03-17T03:13:14.878Z,-4.53
2023-03-17T03:14:01.828Z,-4.55
2023-03-17T03:14:49.198Z,-4.56
2023-03-17T03:15:36.256Z,-4.49
2023-03-17T03:16:23.317Z,-4.46
2023-03-17T03:17:10.840Z,-4.38
2023-03-17T03:17:57.844Z,-4.41
2023-03-17T03:18:44.791Z,-4.31
2023-03-17T03:19:31.860Z,-4.23
2023-03-17T03:20:19.548Z,-4.20
2023-03-17T03:21:06.787Z,-4.18
2023-03-17T03:21:53.681Z,-4.10
2023-03-17T03:22:40.818Z,-4.15
2023-03-17T03:23:27.839Z,-4.11
2023-03-17T03:24:14.755Z,-4.04
2023-03-17T03:25:01.704Z,-3.92
2023-03-17T03:25:48.867Z,-3.84
2023-03-17T03:26:37.397Z,-3.74
2023-03-17T03:27:24.297Z,-3.68
2023-03-17T03:28:11.262Z,-3.55
2023-03-17T03:28:58.650Z,-3.48
2023-03-17T03:29:45.533Z,-3.42
2023-03-17T03:30:33.659Z,-3.34
2023-03-17T03:31:20.737Z,-3.31
2023-03-17T03:32:08.418Z,-3.24
2023-03-17T03:32:55.610Z,-3.19
2023-03-17T03:33:43.068Z,-2.85
2023-03-17T03:34:30.209Z,-2.87
2023-03-17T03:35:17.230Z,-2.89
2023-03-17T03:36:04.451Z,-2.92
2023-03-17T03:36:51.479Z,-2.37
2023-03-17T03:37:38.419Z,-2.46
2023-03-17T03:38:26.757Z,-2.41
2023-03-17T03:39:14.537Z,-2.44
2023-03-17T03:40:01.691Z,-2.50
2023-03-17T03:40:48.629Z,-2.52
2023-03-17T03:41:35.960Z,-2.44
2023-03-17T03:42:22.902Z,-2.35
2023-03-17T03:43:21.867Z,-2.47
2023-03-17T03:44:10.115Z,-2.39
2023-03-17T03:44:57.006Z,-2.21
2023-03-17T03:45:43.916Z,-2.18
2023-03-17T03:46:31.124Z,-2.19
2023-03-17T03:47:18.127Z,-2.19
2023-03-17T03:48:05.237Z,-2.21
2023-03-17T03:48:52.099Z,-2.28
2023-03-17T03:49:39.046Z,-2.26
2023-03-17T03:50:26.055Z,-2.18
2023-03-17T03:51:13.005Z,-2.08
2023-03-17T03:51:59.894Z,-2.08
2023-03-17T03:52:46.972Z,-2.06
2023-03-17T03:53:34.099Z,-2.06
2023-03-17T03:54:21.003Z,-2.09
2023-03-17T03:55:08.366Z,-2.12
2023-03-17T03:55:56.266Z,-2.07
2023-03-17T03:56:43.204Z,-2.06
2023-03-17T03:57:30.123Z,-2.06
2023-03-17T03:58:17.072Z,-2.09
2023-03-17T03:59:04.103Z,-2.07
2023-03-17T03:59:51.271Z,-2.00
2023-03-17T04:00:38.226Z,-2.01
2023-03-17T04:01:25.144Z,-1.98
2023-03-17T04:02:12.103Z,-2.05
2023-03-17T04:02:59.354Z,-1.94
2023-03-17T04:03:47.561Z,-2.00
2023-03-17T04:04:34.660Z,-1.99
2023-03-17T04:05:22.406Z,-1.99
2023-03-17T04:06:09.326Z,-2.00
2023-03-17T04:06:56.284Z,-1.93
2023-03-17T04:07:43.483Z,-1.94
2023-03-17T04:08:31.972Z,-1.96
2023-03-17T04:09:18.966Z,-1.85
2023-03-17T04:10:06.283Z,-1.88
2023-03-17T04:10:53.213Z,-1.70
2023-03-17T04:11:40.102Z,-1.59
2023-03-17T04:12:27.036Z,-1.51
2023-03-17T04:13:14.455Z,-1.51
2023-03-17T04:14:01.991Z,-1.33
2023-03-17T04:14:48.922Z,-1.33
2023-03-17T04:15:36.063Z,-1.39
2023-03-17T04:16:23.064Z,-1.47
2023-03-17T04:17:10.502Z,-1.46
2023-03-17T04:17:57.453Z,-1.48
2023-03-17T04:18:44.861Z,-1.49
2023-03-17T04:19:32.589Z,-1.52
2023-03-17T04:20:19.520Z,-1.42
2023-03-17T04:21:09.508Z,-1.39
2023-03-17T04:21:56.804Z,-1.36
2023-03-17T04:22:44.054Z,-1.38
2023-03-17T04:23:31.770Z,-1.48
2023-03-17T04:24:18.716Z,-1.42
2023-03-17T04:25:06.374Z,-1.27
2023-03-17T04:25:53.846Z,-1.33
2023-03-17T04:26:41.600Z,-1.30
2023-03-17T04:27:28.583Z,-1.33
2023-03-17T04:28:15.489Z,-1.36
2023-03-17T04:29:02.371Z,-1.38
2023-03-17T04:29:49.823Z,-1.40
2023-03-17T04:30:36.889Z,-1.29
2023-03-17T04:31:23.898Z,-1.25
2023-03-17T04:32:15.068Z,-1.29
2023-03-17T04:33:02.084Z,-1.27
2023-03-17T04:33:49.512Z,-1.25
2023-03-17T04:34:36.407Z,-1.31
2023-03-17T04:35:23.586Z,-1.24
2023-03-17T04:36:17.934Z,-1.22
2023-03-17T04:37:04.918Z,-1.20
2023-03-17T04:37:51.874Z,-1.06
2023-03-17T04:38:38.779Z,-1.07
2023-03-17T04:39:25.803Z,-1.10
2023-03-17T04:40:14.566Z,-1.13
2023-03-17T04:41:01.650Z,-1.05
2023-03-17T04:41:48.652Z,-1.03
2023-03-17T04:42:36.033Z,-1.06
2023-03-17T04:43:22.993Z,-1.10
2023-03-17T04:44:09.933Z,-1.13
2023-03-17T04:44:56.833Z,-1.16
2023-03-17T04:45:43.776Z,-1.10
2023-03-17T04:46:30.996Z,-1.07
2023-03-17T04:47:17.893Z,-0.97
2023-03-17T04:48:06.091Z,-0.95
2023-03-17T04:48:53.394Z,-0.90
2023-03-17T04:49:40.280Z,-0.85
2023-03-17T04:50:27.223Z,-0.79
2023-03-17T04:51:14.142Z,-0.79
2023-03-17T04:52:01.705Z,-0.71
2023-03-17T04:52:48.821Z,-0.70
2023-03-17T04:53:35.702Z,-0.64
2023-03-17T04:54:22.713Z,-0.68
2023-03-17T04:55:10.274Z,-0.57
2023-03-17T04:55:57.516Z,-0.55
2023-03-17T04:56:44.445Z,-0.63
2023-03-17T04:57:31.501Z,-0.67
2023-03-17T04:58:30.121Z,-0.79
2023-03-17T04:59:18.044Z,-0.73
2023-03-17T05:00:07.432Z,-0.51
2023-03-17T05:00:54.462Z,-0.60
2023-03-17T05:01:41.400Z,-0.58
2023-03-17T05:02:28.434Z,-0.59
2023-03-17T05:03:26.413Z,-0.65
2023-03-17T05:04:22.114Z,-0.62
2023-03-17T05:05:17.690Z,-0.58
2023-03-17T05:06:04.965Z,-0.53
2023-03-17T05:06:52.133Z,-0.46
2023-03-17T05:07:39.161Z,-0.42
2023-03-17T05:08:28.565Z,-0.32
2023-03-17T05:09:15.528Z,-0.33
2023-03-17T05:10:02.451Z,-0.30
2023-03-17T05:10:49.362Z,-0.29
2023-03-17T05:11:36.633Z,-0.25
2023-03-17T05:12:23.551Z,-0.11
2023-03-17T05:13:10.874Z,-0.03
2023-03-17T05:13:57.950Z,-0.02
2023-03-17T05:14:44.845Z,0.03
2023-03-17T05:15:31.753Z,0.11
2023-03-17T05:16:18.765Z,0.07
2023-03-17T05:17:05.763Z,0.07
2023-03-17T05:17:52.684Z,0.08
2023-03-17T05:18:39.602Z,0.09
2023-03-17T05:19:27.194Z,0.06
2023-03-17T05:20:14.803Z,0.11
2023-03-17T05:21:01.817Z,0.13
2023-03-17T05:21:49.263Z,0.27
2023-03-17T05:22:36.422Z,0.27
2023-03-17T05:23:23.401Z,0.29
2023-03-17T05:24:10.454Z,0.40
2023-03-17T05:24:57.384Z,0.45
2023-03-17T05:25:44.306Z,0.33
2023-03-17T05:26:31.344Z,0.36
2023-03-17T05:27:18.224Z,0.33
2023-03-17T05:28:05.229Z,0.35
2023-03-17T05:28:52.644Z,0.39
2023-03-17T05:29:39.611Z,0.38
2023-03-17T05:30:26.858Z,0.36
2023-03-17T05:31:13.788Z,0.38
2023-03-17T05:32:00.705Z,0.47
2023-03-17T05:32:47.674Z,0.48
2023-03-17T05:33:34.703Z,0.51
2023-03-17T05:34:21.624Z,0.55
2023-03-17T05:35:08.875Z,0.63
2023-03-17T05:35:55.817Z,0.63
2023-03-17T05:36:42.714Z,0.70
2023-03-17T05:37:29.783Z,0.67
2023-03-17T05:38:16.688Z,0.67
2023-03-17T05:39:04.301Z,0.68
2023-03-17T05:39:52.883Z,0.74
2023-03-17T05:40:39.837Z,0.81
2023-03-17T05:41:26.781Z,0.82
2023-03-17T05:42:14.099Z,0.70
2023-03-17T05:43:01.119Z,0.86
2023-03-17T05:43:48.062Z,0.93
2023-03-17T05:44:35.243Z,0.95
2023-03-17T05:45:22.330Z,1.01
2023-03-17T05:46:09.521Z,1.02
2023-03-17T05:46:56.545Z,1.03
2023-03-17T05:47:43.921Z,1.10
2023-03-17T05:48:30.846Z,1.18
2023-03-17T05:49:18.930Z,1.26
2023-03-17T05:50:06.883Z,1.30
2023-03-17T05:50:53.793Z,1.34
2023-03-17T05:51:42.083Z,1.30
2023-03-17T05:52:29.361Z,1.35
2023-03-17T05:53:16.413Z,1.44
2023-03-17T05:54:03.401Z,1.42
2023-03-17T05:54:52.452Z,1.46
2023-03-17T05:55:39.358Z,1.52
2023-03-17T05:56:33.619Z,1.51
2023-03-17T05:57:21.494Z,1.56
2023-03-17T05:58:09.789Z,1.62
2023-03-17T05:58:56.731Z,1.61
2023-03-17T05:59:43.958Z,1.64
2023-03-17T06:00:31.188Z,1.63
2023-03-17T06:01:18.214Z,1.67
2023-03-17T06:02:05.215Z,1.65
2023-03-17T06:02:52.194Z,1.70
2023-03-17T06:03:39.213Z,1.72
2023-03-17T06:04:26.647Z,1.72
2023-03-17T06:05:13.785Z,1.80
2023-03-17T06:06:00.878Z,1.88
2023-03-17T06:06:47.750Z,1.82
2023-03-17T06:07:50.855Z,1.77
2023-03-17T06:08:40.266Z,1.80
2023-03-17T06:09:27.156Z,1.81
2023-03-17T06:10:14.089Z,1.90
2023-03-17T06:11:01.028Z,1.97
2023-03-17T06:11:47.938Z,1.97
2023-03-17T06:12:35.057Z,2.06
2023-03-17T06:13:21.956Z,2.10
2023-03-17T06:14:08.918Z,2.11
2023-03-17T06:14:55.865Z,2.11
2023-03-17T06:15:43.311Z,2.16
2023-03-17T06:16:33.404Z,2.23
2023-03-17T06:17:20.357Z,2.27
2023-03-17T06:18:07.615Z,2.28
2023-03-17T06:18:54.530Z,2.37
2023-03-17T06:19:42.016Z,2.41
2023-03-17T06:20:28.970Z,2.47
2023-03-17T06:21:16.285Z,2.53
2023-03-17T06:22:03.289Z,2.60
2023-03-17T06:23:03.313Z,2.61
2023-03-17T06:23:50.619Z,2.64
2023-03-17T06:24:37.595Z,2.71
2023-03-17T06:25:24.546Z,2.81
2023-03-17T06:26:11.897Z,2.83
2023-03-17T06:26:58.920Z,2.92
2023-03-17T06:27:45.858Z,3.02
2023-03-17T06:28:33.089Z,3.09
2023-03-17T06:29:20.274Z,3.12
2023-03-17T06:30:08.539Z,3.16
2023-03-17T06:30:55.491Z,3.15
2023-03-17T06:31:42.430Z,3.18
2023-03-17T06:32:30.817Z,3.13
2023-03-17T06:33:19.363Z,3.17
2023-03-17T06:34:06.900Z,3.24
2023-03-17T06:34:54.031Z,3.26
2023-03-17T06:35:41.215Z,3.31
2023-03-17T06:36:28.474Z,3.40
2023-03-17T06:37:16.725Z,3.33
2023-03-17T06:38:03.757Z,3.39
2023-03-17T06:38:51.095Z,3.47
2023-03-17T06:39:38.694Z,3.57
2023-03-17T06:40:26.107Z,3.58
2023-03-17T06:41:13.415Z,3.64
2023-03-17T06:42:00.415Z,3.66
2023-03-17T06:42:47.755Z,3.74
2023-03-17T06:43:35.485Z,3.83
2023-03-17T06:44:22.547Z,3.80
2023-03-17T06:45:10.484Z,3.82
2023-03-17T06:45:57.546Z,3.77
2023-03-17T06:46:44.456Z,3.82
2023-03-17T06:47:31.778Z,3.91
2023-03-17T06:48:19.157Z,3.98
2023-03-17T06:49:06.075Z,4.03
2023-03-17T06:49:53.729Z,4.07
2023-03-17T06:50:40.794Z,4.08
2023-03-17T06:51:27.825Z,4.13
2023-03-17T06:52:14.755Z,4.16
2023-03-17T06:53:02.146Z,4.21
2023-03-17T06:53:49.055Z,4.27
2023-03-17T06:54:36.823Z,4.34
2023-03-17T06:55:23.813Z,4.39
2023-03-17T06:56:23.602Z,4.46
2023-03-17T06:57:14.856Z,4.54
2023-03-17T06:58:03.319Z,4.56
2023-03-17T06:58:51.566Z,4.60
2023-03-17T06:59:39.436Z,4.65
2023-03-17T07:00:27.947Z,4.67
2023-03-17T07:01:15.208Z,4.69
2023-03-17T07:02:02.884Z,4.73
2023-03-17T07:02:51.352Z,4.75
2023-03-17T07:03:42.425Z,4.78
2023-03-17T07:04:30.370Z,4.76
2023-03-17T07:05:20.044Z,4.83
2023-03-17T07:06:09.527Z,4.85
2023-03-17T07:06:59.214Z,4.93
2023-03-17T07:07:47.271Z,4.88
2023-03-17T07:08:34.333Z,4.94
2023-03-17T07:09:22.392Z,4.98
2023-03-17T07:10:16.150Z,4.99
2023-03-17T07:11:04.857Z,5.00
2023-03-17T07:11:51.850Z,4.96
2023-03-17T07:12:38.966Z,5.05
2023-03-17T07:13:28.811Z,5.10
2023-03-17T07:14:23.281Z,5.12
2023-03-17T07:15:12.771Z,5.07
2023-03-17T07:16:00.767Z,5.08
2023-03-17T07:16:48.721Z,5.18
2023-03-17T07:17:35.756Z,5.19
2023-03-17T07:18:24.040Z,5.23
2023-03-17T07:19:12.479Z,5.27
2023-03-17T07:19:59.437Z,5.31
2023-03-17T07:20:49.082Z,5.28
2023-03-17T07:21:36.844Z,5.37
2023-03-17T07:22:24.333Z,5.51
2023-03-17T07:23:23.434Z,5.43
2023-03-17T07:24:12.215Z,5.46
2023-03-17T07:24:59.633Z,5.51
2023-03-17T07:25:48.576Z,5.60
2023-03-17T07:27:35.841Z,5.66
2023-03-17T07:28:26.667Z,5.60
2023-03-17T07:29:14.618Z,5.61
2023-03-17T07:30:06.842Z,5.64
2023-03-17T07:30:54.232Z,5.69
2023-03-17T07:31:42.445Z,5.73
2023-03-17T07:32:29.820Z,5.70
2023-03-17T07:33:17.776Z,5.75
2023-03-17T07:34:06.849Z,5.80
2023-03-17T07:34:54.924Z,5.78
2023-03-17T07:35:42.714Z,5.92
2023-03-17T07:36:29.765Z,5.99
2023-03-17T07:37:18.605Z,6.02
2023-03-17T07:38:07.750Z,6.05
2023-03-17T07:38:55.706Z,6.12
2023-03-17T07:39:43.858Z,6.15
2023-03-17T07:40:35.244Z,6.20
2023-03-17T07:41:22.548Z,6.22
2023-03-17T07:42:11.554Z,6.30
2023-03-17T07:43:01.117Z,6.37
2023-03-17T07:43:48.943Z,6.38
2023-03-17T07:44:38.774Z,6.44
2023-03-17T07:45:27.562Z,6.47
2023-03-17T07:46:15.591Z,6.50
2023-03-17T07:47:02.648Z,6.46
2023-03-17T07:47:49.891Z,6.47
2023-03-17T07:48:41.020Z,6.45
2023-03-17T07:49:40.846Z,6.46
2023-03-17T07:50:29.229Z,6.48
2023-03-17T07:51:19.289Z,6.56
2023-03-17T07:52:06.853Z,6.65
2023-03-17T07:52:54.133Z,6.68
2023-03-17T07:53:41.926Z,6.71
2023-03-17T07:54:29.381Z,6.79
2023-03-17T07:55:16.753Z,6.83
2023-03-17T07:56:03.806Z,6.84
2023-03-17T07:56:50.922Z,6.86
2023-03-17T07:57:38.282Z,6.85
2023-03-17T07:58:26.724Z,6.83
2023-03-17T07:59:13.809Z,6.85
2023-03-17T08:00:03.569Z,6.85
2023-03-17T08:00:52.175Z,6.90
2023-03-17T08:01:41.571Z,6.92
2023-03-17T08:02:30.543Z,6.93
2023-03-17T08:03:18.497Z,6.94
2023-03-17T08:04:06.186Z,6.92
2023-03-17T08:04:54.193Z,7.02
2023-03-17T08:05:41.339Z,7.08
2023-03-17T08:06:28.712Z,6.96
2023-03-17T08:07:17.198Z,6.97
2023-03-17T08:08:05.460Z,7.00
2023-03-17T08:08:53.713Z,7.07
2023-03-17T08:09:41.093Z,7.12
2023-03-17T08:10:28.652Z,7.03
2023-03-17T08:11:17.574Z,7.03
2023-03-17T08:12:05.823Z,7.01
2023-03-17T08:12:54.160Z,7.06
2023-03-17T08:13:41.090Z,7.13
2023-03-17T08:14:28.066Z,7.21
2023-03-17T08:15:14.926Z,7.16
2023-03-17T08:16:02.290Z,7.15
2023-03-17T08:16:49.352Z,7.17
2023-03-17T08:17:36.726Z,7.18
2023-03-17T08:18:23.704Z,7.23
2023-03-17T08:19:11.279Z,7.26
2023-03-17T08:19:58.820Z,7.31
2023-03-17T08:20:45.790Z,7.41
2023-03-17T08:21:32.766Z,7.46
2023-03-17T08:22:21.735Z,7.52
2023-03-17T08:23:08.764Z,7.57
2023-03-17T08:23:55.671Z,7.53
2023-03-17T08:24:43.249Z,7.45
2023-03-17T08:25:30.125Z,7.48
2023-03-17T08:26:18.849Z,7.48
2023-03-17T08:27:05.931Z,7.55
2023-03-17T08:27:52.989Z,7.60
2023-03-17T08:28:41.970Z,7.58
2023-03-17T08:29:29.373Z,7.58
2023-03-17T08:30:17.383Z,7.67
2023-03-17T08:31:19.131Z,7.72
2023-03-17T08:32:07.214Z,7.71
2023-03-17T08:32:55.036Z,7.65
2023-03-17T08:33:42.711Z,7.70
2023-03-17T08:34:29.752Z,7.53
2023-03-17T08:35:17.483Z,7.39
2023-03-17T08:36:06.973Z,7.43
2023-03-17T08:36:54.246Z,7.50
2023-03-17T08:37:41.175Z,7.57
2023-03-17T08:38:30.702Z,7.69
2023-03-17T08:39:17.805Z,7.75
2023-03-17T08:40:06.180Z,7.76
2023-03-17T08:40:53.288Z,7.78
2023-03-17T08:41:40.406Z,7.74
2023-03-17T08:42:27.675Z,7.72
2023-03-17T08:43:14.655Z,7.75
2023-03-17T08:44:02.418Z,7.80
2023-03-17T08:44:50.080Z,7.88
2023-03-17T08:45:37.156Z,7.85
2023-03-17T08:46:27.400Z,7.88
2023-03-17T08:47:14.571Z,7.96
2023-03-17T08:48:01.683Z,7.89
2023-03-17T08:48:51.205Z,7.93
2023-03-17T08:49:40.904Z,7.95
2023-03-17T08:50:28.107Z,7.90
2023-03-17T08:51:18.576Z,7.95
2023-03-17T08:52:06.405Z,8.05
2023-03-17T08:52:54.454Z,8.01
2023-03-17T08:53:41.807Z,8.11
2023-03-17T08:54:28.864Z,8.22
2023-03-17T08:55:16.936Z,8.24
2023-03-17T08:56:07.337Z,8.12
2023-03-17T08:56:54.382Z,8.15
2023-03-17T08:57:43.226Z,8.10
2023-03-17T08:58:30.338Z,8.06
2023-03-17T08:59:17.448Z,8.08
2023-03-17T09:00:11.226Z,8.15
2023-03-17T09:01:03.078Z,8.14
2023-03-17T09:01:50.910Z,8.13
2023-03-17T09:02:39.208Z,8.16
2023-03-17T09:03:27.094Z,8.15
2023-03-17T09:04:14.129Z,8.24
2023-03-17T09:05:01.538Z,8.32
2023-03-17T09:05:50.137Z,8.29
2023-03-17T09:06:38.807Z,8.28
2023-03-17T09:07:26.627Z,8.31
2023-03-17T09:08:13.927Z,8.46
2023-03-17T09:09:01.490Z,8.59
2023-03-17T09:09:48.846Z,8.68
2023-03-17T09:10:36.535Z,8.58
2023-03-17T09:11:26.321Z,8.57
2023-03-17T09:12:16.868Z,8.64
2023-03-17T09:13:06.647Z,8.62
2023-03-17T09:13:54.705Z,8.64
2023-03-17T09:14:44.521Z,8.58
2023-03-17T09:15:34.100Z,8.64
2023-03-17T09:16:23.370Z,8.76
2023-03-17T09:17:11.417Z,8.89
2023-03-17T09:18:00.570Z,8.96
2023-03-17T09:18:47.838Z,8.97
2023-03-17T09:19:34.981Z,8.85
2023-03-17T09:20:22.578Z,8.75
2023-03-17T09:21:11.965Z,8.83
2023-03-17T09:21:58.950Z,8.81
2023-03-17T09:22:48.108Z,8.79
2023-03-17T09:23:35.226Z,8.79
2023-03-17T09:24:22.178Z,8.86
2023-03-17T09:25:09.490Z,8.93
2023-03-17T09:25:57.445Z,8.93
2023-03-17T09:26:44.517Z,8.96
2023-03-17T09:27:31.538Z,9.05
2023-03-17T09:28:19.185Z,9.04
2023-03-17T09:29:07.548Z,8.98
2023-03-17T09:29:54.603Z,9.04
2023-03-17T09:30:42.871Z,9.17
2023-03-17T09:31:30.174Z,9.24
2023-03-17T09:32:18.076Z,9.29
2023-03-17T09:33:05.214Z,9.28
2023-03-17T09:33:52.878Z,9.32
2023-03-17T09:34:39.957Z,9.21
2023-03-17T09:35:31.812Z,9.30
2023-03-17T09:36:19.496Z,9.31
2023-03-17T09:37:07.037Z,9.33
2023-03-17T09:37:54.773Z,9.34
2023-03-17T09:38:41.725Z,9.26
2023-03-17T09:39:28.890Z,9.30
2023-03-17T09:40:18.771Z,9.31
2023-03-17T09:41:27.884Z,9.46
2023-03-17T09:42:27.346Z,9.37
2023-03-17T09:43:29.493Z,9.44
2023-03-17T09:45:01.064Z,9.54
2023-03-17T09:45:48.163Z,9.56
2023-03-17T09:46:49.951Z,9.37
2023-03-17T09:47:52.305Z,9.32
2023-03-17T09:48:54.333Z,9.38
2023-03-17T09:49:48.869Z,9.45
2023-03-17T09:51:09.203Z,9.17
2023-03-17T09:51:56.474Z,9.19
2023-03-17T09:52:43.736Z,9.40
2023-03-17T09:53:51.865Z,9.46
2023-03-17T09:54:39.464Z,9.56
2023-03-17T09:55:32.805Z,9.67
2023-03-17T09:56:22.752Z,9.79
2023-03-17T09:57:21.555Z,9.74
2023-03-17T09:58:10.666Z,9.80
2023-03-17T09:59:06.649Z,9.69
2023-03-17T10:00:20.065Z,9.66
2023-03-17T10:01:09.445Z,9.66
2023-03-17T10:01:57.356Z,9.78
2023-03-17T10:02:45.266Z,9.78
2023-03-17T10:03:32.974Z,9.78
2023-03-17T10:04:20.075Z,9.79
2023-03-17T10:05:28.223Z,9.91
2023-03-17T10:06:25.346Z,10.03
2023-03-17T10:07:19.254Z,10.11
2023-03-17T10:08:29.521Z,10.12
2023-03-17T10:09:42.605Z,9.98
2023-03-17T10:10:48.350Z,9.93
2023-03-17T10:11:43.855Z,10.04
2023-03-17T10:12:44.143Z,9.98
2023-03-17T10:13:58.664Z,10.15
2023-03-17T10:15:04.856Z,10.21
2023-03-17T10:16:00.532Z,10.30
2023-03-17T10:17:19.955Z,10.41
2023-03-17T10:18:14.146Z,10.50
2023-03-17T10:19:22.331Z,10.38
2023-03-17T10:20:16.369Z,10.28
2023-03-17T10:21:06.196Z,10.48
2023-03-17T10:22:30.551Z,10.54
2023-03-17T10:23:21.564Z,10.38
2023-03-17T10:24:10.646Z,10.41
2023-03-17T10:25:31.997Z,10.19
2023-03-17T10:26:27.437Z,10.15
2023-03-17T10:27:15.677Z,10.22
2023-03-17T10:28:09.122Z,10.37
2023-03-17T10:28:58.433Z,10.39
2023-03-17T10:29:48.286Z,10.45
2023-03-17T10:30:35.666Z,10.51
2023-03-17T10:31:33.418Z,10.41
2023-03-17T10:32:21.005Z,10.38
2023-03-17T10:33:08.056Z,10.31
2023-03-17T10:33:56.525Z,10.49
2023-03-17T10:34:44.045Z,10.53
2023-03-17T10:35:36.460Z,10.50
2023-03-17T10:36:40.928Z,10.52
2023-03-17T10:37:29.886Z,10.44
2023-03-17T10:38:22.252Z,10.33
2023-03-17T10:39:15.032Z,10.30
2023-03-17T10:40:05.580Z,10.38
2023-03-17T10:41:03.783Z,10.47
2023-03-17T10:42:09.426Z,10.29
2023-03-17T10:43:04.006Z,10.37
2023-03-17T10:43:51.931Z,10.42